sensor_id;sensor_type;location;lat;lon;timestamp;pressure;altitude;pressure_sealevel;temperature;humidity
71194;BME280;58903;47.210;8.618;2024-02-26T00:00:53;92265.38;;;26.98;36.87
71194;BME280;58903;47.210;8.618;2024-02-26T00:03:19;92273.81;;;27.00;36.95
71194;BME280;58903;47.210;8.618;2024-02-26T00:05:45;92269.41;;;26.97;36.64
71194;BME280;58903;47.210;8.618;2024-02-26T00:08:24;92262.59;;;26.98;36.55
71194;BME280;58903;47.210;8.618;2024-02-26T00:10:59;92259.69;;;26.96;36.50
71194;BME280;58903;47.210;8.618;2024-02-26T00:13:27;92265.38;;;26.98;36.81
71194;BME280;58903;47.210;8.618;2024-02-26T00:15:53;92262.44;;;26.96;36.82
71194;BME280;58903;47.210;8.618;2024-02-26T00:18:19;92263.19;;;26.97;36.33
71194;BME280;58903;47.210;8.618;2024-02-26T00:20:47;92257.66;;;26.97;36.77
71194;BME280;58903;47.210;8.618;2024-02-26T00:23:16;92259.13;;;26.98;36.44
71194;BME280;58903;47.210;8.618;2024-02-26T00:25:47;92256.34;;;26.98;36.73
71194;BME280;58903;47.210;8.618;2024-02-26T00:28:15;92249.94;;;26.95;36.35
71194;BME280;58903;47.210;8.618;2024-02-26T00:30:43;92263.72;;;26.95;36.29
71194;BME280;58903;47.210;8.618;2024-02-26T00:33:10;92266.66;;;26.97;36.27
71194;BME280;58903;47.210;8.618;2024-02-26T00:35:45;92265.38;;;26.98;37.03
71194;BME280;58903;47.210;8.618;2024-02-26T00:38:24;92268.84;;;26.99;36.24
71194;BME280;58903;47.210;8.618;2024-02-26T00:40:51;92276.41;;;26.98;36.32
71194;BME280;58903;47.210;8.618;2024-02-26T00:43:18;92272.91;;;26.98;36.27
71194;BME280;58903;47.210;8.618;2024-02-26T00:45:45;92263.91;;;26.97;36.41
71194;BME280;58903;47.210;8.618;2024-02-26T00:48:15;92283.38;;;26.99;36.40
71194;BME280;58903;47.210;8.618;2024-02-26T00:50:42;92280.44;;;26.97;36.56
71194;BME280;58903;47.210;8.618;2024-02-26T00:53:08;92280.44;;;26.97;36.53
71194;BME280;58903;47.210;8.618;2024-02-26T00:55:36;92293.69;;;26.99;36.49
71194;BME280;58903;47.210;8.618;2024-02-26T00:58:10;92296.44;;;26.99;36.43
71194;BME280;58903;47.210;8.618;2024-02-26T01:00:38;92304.72;;;26.99;36.60
71194;BME280;58903;47.210;8.618;2024-02-26T01:03:06;92306.16;;;27.00;36.18
71194;BME280;58903;47.210;8.618;2024-02-26T01:05:36;92310.94;;;26.99;36.36
71194;BME280;58903;47.210;8.618;2024-02-26T01:08:04;92315.03;;;26.98;36.35
71194;BME280;58903;47.210;8.618;2024-02-26T01:10:30;92324.59;;;26.97;36.08
71194;BME280;58903;47.210;8.618;2024-02-26T01:12:56;92313.56;;;26.97;36.16
71194;BME280;58903;47.210;8.618;2024-02-26T01:15:22;92319.06;;;26.97;36.20
71194;BME280;58903;47.210;8.618;2024-02-26T01:17:52;92302.19;;;26.93;36.27
71194;BME280;58903;47.210;8.618;2024-02-26T01:20:18;92308.63;;;26.96;36.28
71194;BME280;58903;47.210;8.618;2024-02-26T01:22:48;92314.13;;;26.96;36.32
71194;BME280;58903;47.210;8.618;2024-02-26T01:25:27;92314.88;;;26.96;36.37
71194;BME280;58903;47.210;8.618;2024-02-26T01:28:00;92316.16;;;26.95;36.36
71194;BME280;58903;47.210;8.618;2024-02-26T01:30:30;92311.38;;;26.96;35.97
71194;BME280;58903;47.210;8.618;2024-02-26T01:32:59;92314.88;;;26.96;36.09
71194;BME280;58903;47.210;8.618;2024-02-26T01:35:24;92311.94;;;26.94;36.12
71194;BME280;58903;47.210;8.618;2024-02-26T01:37:51;92316.16;;;26.95;36.54
71194;BME280;58903;47.210;8.618;2024-02-26T01:40:17;92310.63;;;26.95;36.22
71194;BME280;58903;47.210;8.618;2024-02-26T01:42:52;92305.84;;;26.96;36.43
71194;BME280;58903;47.210;8.618;2024-02-26T01:45:33;92296.28;;;26.97;36.18
71194;BME280;58903;47.210;8.618;2024-02-26T01:48:26;92299.59;;;26.95;36.11
71194;BME280;58903;47.210;8.618;2024-02-26T01:54:20;92294.09;;;26.95;35.84
71194;BME280;58903;47.210;8.618;2024-02-26T01:56:49;92304.41;;;26.95;35.90
71194;BME280;58903;47.210;8.618;2024-02-26T01:59:34;92311.38;;;26.96;36.11
71194;BME280;58903;47.210;8.618;2024-02-26T02:02:07;92300.91;;;26.94;35.74
71194;BME280;58903;47.210;8.618;2024-02-26T02:04:35;92289.88;;;26.94;36.25
71194;BME280;58903;47.210;8.618;2024-02-26T02:07:12;92288.56;;;26.95;35.99
71194;BME280;58903;47.210;8.618;2024-02-26T02:09:41;92287.84;;;26.95;36.15
71194;BME280;58903;47.210;8.618;2024-02-26T02:12:10;92282.72;;;26.91;35.98
71194;BME280;58903;47.210;8.618;2024-02-26T02:14:38;92275.34;;;26.94;35.99
71194;BME280;58903;47.210;8.618;2024-02-26T02:17:04;92275.34;;;26.94;36.07
71194;BME280;58903;47.210;8.618;2024-02-26T02:19:40;92274.63;;;26.93;36.44
71194;BME280;58903;47.210;8.618;2024-02-26T02:22:08;92264.75;;;26.90;36.16
71194;BME280;58903;47.210;8.618;2024-02-26T02:24:45;92262.28;;;26.94;35.82
71194;BME280;58903;47.210;8.618;2024-02-26T02:27:23;92253.28;;;26.94;36.03
71194;BME280;58903;47.210;8.618;2024-02-26T02:29:49;92252.97;;;26.89;36.01
71194;BME280;58903;47.210;8.618;2024-02-26T02:32:16;92247.03;;;26.93;36.31
71194;BME280;58903;47.210;8.618;2024-02-26T02:35:02;92232.69;;;26.95;36.11
71194;BME280;58903;47.210;8.618;2024-02-26T02:37:31;92238.59;;;26.91;36.13
71194;BME280;58903;47.210;8.618;2024-02-26T02:40:15;92238.00;;;26.92;35.92
71194;BME280;58903;47.210;8.618;2024-02-26T02:42:43;92240.22;;;26.94;36.12
71194;BME280;58903;47.210;8.618;2024-02-26T02:45:13;92239.50;;;26.94;36.27
71194;BME280;58903;47.210;8.618;2024-02-26T02:47:49;92252.53;;;26.93;36.10
71194;BME280;58903;47.210;8.618;2024-02-26T02:50:25;92235.69;;;26.89;35.76
71194;BME280;58903;47.210;8.618;2024-02-26T02:53:02;92246.88;;;26.91;36.01
71194;BME280;58903;47.210;8.618;2024-02-26T02:55:29;92244.84;;;26.92;35.76
71194;BME280;58903;47.210;8.618;2024-02-26T02:58:04;92243.97;;;26.89;36.15
71194;BME280;58903;47.210;8.618;2024-02-26T03:00:30;92234.94;;;26.88;36.10
71194;BME280;58903;47.210;8.618;2024-02-26T03:02:56;92235.53;;;26.87;35.99
71194;BME280;58903;47.210;8.618;2024-02-26T03:05:22;92232.91;;;26.89;36.02
71194;BME280;58903;47.210;8.618;2024-02-26T03:07:52;92225.97;;;26.88;36.15
71194;BME280;58903;47.210;8.618;2024-02-26T03:10:28;92237.31;;;26.92;35.96
71194;BME280;58903;47.210;8.618;2024-02-26T03:12:54;92222.03;;;26.91;35.93
71194;BME280;58903;47.210;8.618;2024-02-26T03:15:20;92233.06;;;26.91;36.16
71194;BME280;58903;47.210;8.618;2024-02-26T03:17:46;92224.66;;;26.89;36.17
71194;BME280;58903;47.210;8.618;2024-02-26T03:20:15;92232.03;;;26.86;36.09
71194;BME280;58903;47.210;8.618;2024-02-26T03:22:49;92227.09;;;26.85;35.96
71194;BME280;58903;47.210;8.618;2024-02-26T03:25:15;92228.56;;;26.86;35.80
71194;BME280;58903;47.210;8.618;2024-02-26T03:27:41;92234.25;;;26.88;35.82
71194;BME280;58903;47.210;8.618;2024-02-26T03:30:16;92232.75;;;26.87;35.50
71194;BME280;58903;47.210;8.618;2024-02-26T03:32:42;92225.06;;;26.85;35.78
71194;BME280;58903;47.210;8.618;2024-02-26T03:35:08;92228.72;;;26.88;35.92
71194;BME280;58903;47.210;8.618;2024-02-26T03:37:39;92227.25;;;26.87;36.08
71194;BME280;58903;47.210;8.618;2024-02-26T03:40:05;92216.63;;;26.83;35.84
71194;BME280;58903;47.210;8.618;2024-02-26T03:42:34;92224.34;;;26.85;36.25
71194;BME280;58903;47.210;8.618;2024-02-26T03:45:00;92228.38;;;26.84;36.01
71194;BME280;58903;47.210;8.618;2024-02-26T03:47:25;92226.50;;;26.86;36.24
71194;BME280;58903;47.210;8.618;2024-02-26T03:49:52;92236.84;;;26.86;36.33
71194;BME280;58903;47.210;8.618;2024-02-26T03:52:18;92235.38;;;26.85;36.24
71194;BME280;58903;47.210;8.618;2024-02-26T03:54:45;92238.13;;;26.85;35.59
71194;BME280;58903;47.210;8.618;2024-02-26T03:57:11;92249.31;;;26.87;35.81
71194;BME280;58903;47.210;8.618;2024-02-26T03:59:38;92257.44;;;26.85;35.86
71194;BME280;58903;47.210;8.618;2024-02-26T04:02:07;92257.28;;;26.83;35.89
71194;BME280;58903;47.210;8.618;2024-02-26T04:04:35;92267.88;;;26.86;35.91
71194;BME280;58903;47.210;8.618;2024-02-26T04:07:05;92282.25;;;26.85;35.80
71194;BME280;58903;47.210;8.618;2024-02-26T04:09:33;92278.03;;;26.84;35.79
71194;BME280;58903;47.210;8.618;2024-02-26T04:11:59;92276.59;;;26.83;35.80
71194;BME280;58903;47.210;8.618;2024-02-26T04:14:29;92286.72;;;26.80;35.59
71194;BME280;58903;47.210;8.618;2024-02-26T04:17:08;92288.75;;;26.80;35.84
71194;BME280;58903;47.210;8.618;2024-02-26T04:23:00;92299.38;;;26.83;35.97
71194;BME280;58903;47.210;8.618;2024-02-26T04:25:29;92293.13;;;26.83;35.78
71194;BME280;58903;47.210;8.618;2024-02-26T04:28:12;92290.38;;;26.83;35.86
71194;BME280;58903;47.210;8.618;2024-02-26T04:30:49;92302.69;;;26.82;36.16
71194;BME280;58903;47.210;8.618;2024-02-26T04:33:25;92302.69;;;26.82;35.79
71194;BME280;58903;47.210;8.618;2024-02-26T04:36:21;92302.69;;;26.82;35.88
71194;BME280;58903;47.210;8.618;2024-02-26T04:38:54;92302.38;;;26.78;35.66
71194;BME280;58903;47.210;8.618;2024-02-26T04:41:34;92303.84;;;26.79;35.71
71194;BME280;58903;47.210;8.618;2024-02-26T04:44:33;92298.66;;;26.83;35.75
71194;BME280;58903;47.210;8.618;2024-02-26T04:50:42;92304.00;;;26.81;35.80
71194;BME280;58903;47.210;8.618;2024-02-26T04:56:36;92308.06;;;26.80;36.02
71194;BME280;58903;47.210;8.618;2024-02-26T04:59:22;92303.09;;;26.78;35.74
71194;BME280;58903;47.210;8.618;2024-02-26T05:01:48;92296.31;;;26.79;35.54
71194;BME280;58903;47.210;8.618;2024-02-26T05:04:14;92307.72;;;26.76;36.01
71194;BME280;58903;47.210;8.618;2024-02-26T05:06:42;92311.97;;;26.77;35.73
71194;BME280;58903;47.210;8.618;2024-02-26T05:09:09;92315.63;;;26.79;35.82
71194;BME280;58903;47.210;8.618;2024-02-26T05:11:36;92323.69;;;26.77;35.74
71194;BME280;58903;47.210;8.618;2024-02-26T05:14:19;92325.00;;;26.76;36.17
71194;BME280;58903;47.210;8.618;2024-02-26T05:16:57;92319.66;;;26.78;35.96
71194;BME280;58903;47.210;8.618;2024-02-26T05:19:22;92323.16;;;26.79;36.15
71194;BME280;58903;47.210;8.618;2024-02-26T05:21:49;92325.75;;;26.77;35.60
71194;BME280;58903;47.210;8.618;2024-02-26T05:24:55;92332.16;;;26.79;35.72
71194;BME280;58903;47.210;8.618;2024-02-26T05:27:23;92329.41;;;26.79;35.61
71194;BME280;58903;47.210;8.618;2024-02-26T05:29:56;92333.28;;;26.76;35.51
71194;BME280;58903;47.210;8.618;2024-02-26T05:32:27;92333.88;;;26.75;35.54
71194;BME280;58903;47.210;8.618;2024-02-26T05:35:13;92334.41;;;26.73;35.61
71194;BME280;58903;47.210;8.618;2024-02-26T05:37:51;92337.91;;;26.74;36.26
71194;BME280;58903;47.210;8.618;2024-02-26T05:40:27;92350.25;;;26.73;36.00
71194;BME280;58903;47.210;8.618;2024-02-26T05:42:52;92348.38;;;26.75;35.73
71194;BME280;58903;47.210;8.618;2024-02-26T05:45:18;92355.75;;;26.73;35.96
71194;BME280;58903;47.210;8.618;2024-02-26T05:47:45;92346.56;;;26.70;35.48
71194;BME280;58903;47.210;8.618;2024-02-26T05:50:12;92354.25;;;26.72;35.68
71194;BME280;58903;47.210;8.618;2024-02-26T05:52:40;92354.84;;;26.70;36.05
71194;BME280;58903;47.210;8.618;2024-02-26T05:55:08;92351.34;;;26.70;36.16
71194;BME280;58903;47.210;8.618;2024-02-26T05:57:34;92345.25;;;26.71;36.37
71194;BME280;58903;47.210;8.618;2024-02-26T06:00:07;92347.28;;;26.71;36.64
71194;BME280;58903;47.210;8.618;2024-02-26T06:02:33;92341.75;;;26.71;36.54
71194;BME280;58903;47.210;8.618;2024-02-26T06:05:01;92334.81;;;26.70;36.75
71194;BME280;58903;47.210;8.618;2024-02-26T06:07:34;92339.56;;;26.69;37.12
71194;BME280;58903;47.210;8.618;2024-02-26T06:13:12;92332.63;;;26.68;37.18
71194;BME280;58903;47.210;8.618;2024-02-26T06:15:39;92340.16;;;26.68;36.66
71194;BME280;58903;47.210;8.618;2024-02-26T06:18:06;92331.88;;;26.68;36.76
71194;BME280;58903;47.210;8.618;2024-02-26T06:20:32;92316.47;;;26.65;37.01
71194;BME280;58903;47.210;8.618;2024-02-26T06:23:16;92324.88;;;26.67;36.33
71194;BME280;58903;47.210;8.618;2024-02-26T06:25:49;92333.91;;;26.67;36.14
71194;BME280;58903;47.210;8.618;2024-02-26T06:28:24;92338.69;;;26.67;36.85
71194;BME280;58903;47.210;8.618;2024-02-26T06:30:50;92335.38;;;26.68;35.88
71194;BME280;58903;47.210;8.618;2024-02-26T06:33:18;92338.84;;;26.69;36.78
71194;BME280;58903;47.210;8.618;2024-02-26T06:36:04;92342.19;;;26.67;35.67
71194;BME280;58903;47.210;8.618;2024-02-26T06:38:45;92337.56;;;26.70;35.88
71194;BME280;58903;47.210;8.618;2024-02-26T06:41:26;92345.84;;;26.70;36.57
71194;BME280;58903;47.210;8.618;2024-02-26T06:43:56;92338.13;;;26.68;36.12
71194;BME280;58903;47.210;8.618;2024-02-26T06:46:56;92326.38;;;26.68;36.02
71194;BME280;58903;47.210;8.618;2024-02-26T06:49:22;92324.19;;;26.66;36.00
71194;BME280;58903;47.210;8.618;2024-02-26T06:52:22;92331.31;;;26.69;35.97
71194;BME280;58903;47.210;8.618;2024-02-26T06:55:18;92338.13;;;26.68;36.08
71194;BME280;58903;47.210;8.618;2024-02-26T06:57:58;92347.53;;;26.65;35.98
71194;BME280;58903;47.210;8.618;2024-02-26T07:00:37;92346.78;;;26.65;36.82
71194;BME280;58903;47.210;8.618;2024-02-26T07:03:03;92342.91;;;26.68;36.12
71194;BME280;58903;47.210;8.618;2024-02-26T07:05:29;92346.25;;;26.66;36.10
71194;BME280;58903;47.210;8.618;2024-02-26T07:08:00;92349.56;;;26.65;36.11
71194;BME280;58903;47.210;8.618;2024-02-26T07:10:26;92349.56;;;26.65;36.34
71194;BME280;58903;47.210;8.618;2024-02-26T07:12:54;92344.03;;;26.65;36.68
71194;BME280;58903;47.210;8.618;2024-02-26T07:15:21;92327.50;;;26.65;36.14
71194;BME280;58903;47.210;8.618;2024-02-26T07:17:47;92335.91;;;26.67;35.83
71194;BME280;58903;47.210;8.618;2024-02-26T07:20:14;92337.97;;;26.66;36.27
71194;BME280;58903;47.210;8.618;2024-02-26T07:22:40;92332.25;;;26.64;36.23
71194;BME280;58903;47.210;8.618;2024-02-26T07:25:08;92334.31;;;26.64;36.17
71194;BME280;58903;47.210;8.618;2024-02-26T07:27:37;92322.72;;;26.65;36.50
71194;BME280;58903;47.210;8.618;2024-02-26T07:30:17;92322.13;;;26.67;36.12
71194;BME280;58903;47.210;8.618;2024-02-26T07:32:44;92316.47;;;26.65;36.49
71194;BME280;58903;47.210;8.618;2024-02-26T07:35:11;92312.09;;;26.62;36.37
71194;BME280;58903;47.210;8.618;2024-02-26T07:37:47;92324.19;;;26.66;36.23
71194;BME280;58903;47.210;8.618;2024-02-26T07:40:19;92341.75;;;26.71;36.35
71194;BME280;58903;47.210;8.618;2024-02-26T07:42:45;92334.97;;;26.72;36.51
71194;BME280;58903;47.210;8.618;2024-02-26T07:45:15;92330.19;;;26.72;36.34
71194;BME280;58903;47.210;8.618;2024-02-26T07:47:42;92341.75;;;26.71;36.08
71194;BME280;58903;47.210;8.618;2024-02-26T07:50:09;92327.81;;;26.69;36.26
71194;BME280;58903;47.210;8.618;2024-02-26T07:52:36;92323.94;;;26.72;36.57
71194;BME280;58903;47.210;8.618;2024-02-26T07:55:04;92327.63;;;26.74;36.28
71194;BME280;58903;47.210;8.618;2024-02-26T07:57:42;92330.38;;;26.74;36.37
71194;BME280;58903;47.210;8.618;2024-02-26T08:00:09;92339.38;;;26.75;36.40
71194;BME280;58903;47.210;8.618;2024-02-26T08:02:36;92343.44;;;26.74;36.61
71194;BME280;58903;47.210;8.618;2024-02-26T08:05:02;92344.16;;;26.74;36.44
71194;BME280;58903;47.210;8.618;2024-02-26T08:07:28;92341.97;;;26.73;36.07
71194;BME280;58903;47.210;8.618;2024-02-26T08:10:09;92342.69;;;26.73;35.84
71194;BME280;58903;47.210;8.618;2024-02-26T08:16:13;92322.47;;;26.71;36.27
71194;BME280;58903;47.210;8.618;2024-02-26T08:19:08;92339.00;;;26.71;36.34
71194;BME280;58903;47.210;8.618;2024-02-26T08:21:45;92348.75;;;26.72;36.18
71194;BME280;58903;47.210;8.618;2024-02-26T08:24:11;92341.97;;;26.73;36.33
71194;BME280;58903;47.210;8.618;2024-02-26T08:26:37;92351.69;;;26.74;36.33
71194;BME280;58903;47.210;8.618;2024-02-26T08:29:35;92358.69;;;26.75;36.61
71194;BME280;58903;47.210;8.618;2024-02-26T08:32:13;92342.13;;;26.75;36.30
71194;BME280;58903;47.210;8.618;2024-02-26T08:35:00;92343.00;;;26.77;36.45
71194;BME280;58903;47.210;8.618;2024-02-26T08:37:35;92355.94;;;26.75;36.28
71194;BME280;58903;47.210;8.618;2024-02-26T08:40:22;92371.31;;;26.78;35.73
71194;BME280;58903;47.210;8.618;2024-02-26T08:42:59;92375.22;;;26.75;36.02
71194;BME280;58903;47.210;8.618;2024-02-26T08:45:46;92364.03;;;26.73;36.41
71194;BME280;58903;47.210;8.618;2024-02-26T08:48:17;92368.06;;;26.72;36.69
71194;BME280;58903;47.210;8.618;2024-02-26T08:50:46;92363.13;;;26.70;36.44
71194;BME280;58903;47.210;8.618;2024-02-26T08:53:14;92366.22;;;26.74;36.25
71194;BME280;58903;47.210;8.618;2024-02-26T08:55:53;92371.16;;;26.76;36.49
71194;BME280;58903;47.210;8.618;2024-02-26T08:58:28;92355.34;;;26.76;36.43
71194;BME280;58903;47.210;8.618;2024-02-26T09:00:55;92360.88;;;26.76;36.19
71194;BME280;58903;47.210;8.618;2024-02-26T09:03:21;92359.41;;;26.75;36.53
71194;BME280;58903;47.210;8.618;2024-02-26T09:05:47;92362.88;;;26.76;36.49
71194;BME280;58903;47.210;8.618;2024-02-26T09:08:35;92368.97;;;26.74;36.17
71194;BME280;58903;47.210;8.618;2024-02-26T09:13:50;92370.59;;;26.77;36.48
71194;BME280;58903;47.210;8.618;2024-02-26T09:16:17;92362.88;;;26.76;36.52
71194;BME280;58903;47.210;8.618;2024-02-26T09:18:47;92373.34;;;26.77;36.28
71194;BME280;58903;47.210;8.618;2024-02-26T09:21:30;92371.00;;;26.74;36.67
71194;BME280;58903;47.210;8.618;2024-02-26T09:23:57;92373.34;;;26.77;36.27
71194;BME280;58903;47.210;8.618;2024-02-26T09:26:34;92374.09;;;26.78;36.54
71194;BME280;58903;47.210;8.618;2024-02-26T09:29:25;92353.34;;;26.77;36.31
71194;BME280;58903;47.210;8.618;2024-02-26T09:32:29;92353.50;;;26.79;36.62
71194;BME280;58903;47.210;8.618;2024-02-26T09:34:57;92360.44;;;26.80;36.34
71194;BME280;58903;47.210;8.618;2024-02-26T09:37:34;92375.88;;;26.83;36.50
71194;BME280;58903;47.210;8.618;2024-02-26T09:40:32;92381.41;;;26.83;36.20
71194;BME280;58903;47.210;8.618;2024-02-26T09:43:04;92384.00;;;26.81;37.05
71194;BME280;58903;47.210;8.618;2024-02-26T09:45:32;92379.06;;;26.79;36.46
71194;BME280;58903;47.210;8.618;2024-02-26T09:47:59;92379.22;;;26.81;36.83
71194;BME280;58903;47.210;8.618;2024-02-26T09:50:26;92377.00;;;26.80;36.85
71194;BME280;58903;47.210;8.618;2024-02-26T09:52:52;92384.16;;;26.83;36.76
71194;BME280;58903;47.210;8.618;2024-02-26T09:55:20;92395.03;;;26.81;36.17
71194;BME280;58903;47.210;8.618;2024-02-26T09:57:46;92393.16;;;26.83;36.55
71194;BME280;58903;47.210;8.618;2024-02-26T10:00:18;92391.69;;;26.82;36.43
71194;BME280;58903;47.210;8.618;2024-02-26T10:02:48;92395.03;;;26.81;36.71
71194;BME280;58903;47.210;8.618;2024-02-26T10:05:18;92388.34;;;26.84;36.76
71194;BME280;58903;47.210;8.618;2024-02-26T10:08:17;92392.44;;;26.83;36.64
71194;BME280;58903;47.210;8.618;2024-02-26T10:10:54;92388.78;;;26.80;36.80
71194;BME280;58903;47.210;8.618;2024-02-26T10:19:44;92400.72;;;26.83;36.20
71194;BME280;58903;47.210;8.618;2024-02-26T10:22:22;92393.72;;;26.82;36.48
71194;BME280;58903;47.210;8.618;2024-02-26T10:24:58;92402.34;;;26.86;36.47
71194;BME280;58903;47.210;8.618;2024-02-26T10:27:45;92413.03;;;26.82;36.57
71194;BME280;58903;47.210;8.618;2024-02-26T10:30:36;92401.81;;;26.80;36.53
71194;BME280;58903;47.210;8.618;2024-02-26T10:33:38;92405.47;;;26.82;36.38
71194;BME280;58903;47.210;8.618;2024-02-26T10:36:26;92404.59;;;26.80;36.83
71194;BME280;58903;47.210;8.618;2024-02-26T10:39:21;92404.19;;;26.83;36.79
71194;BME280;58903;47.210;8.618;2024-02-26T10:41:57;92406.22;;;26.83;36.58
71194;BME280;58903;47.210;8.618;2024-02-26T10:44:42;92406.97;;;26.83;36.60
71194;BME280;58903;47.210;8.618;2024-02-26T10:47:22;92413.03;;;26.82;36.43
71194;BME280;58903;47.210;8.618;2024-02-26T10:53:13;92417.25;;;26.83;36.78
71194;BME280;58903;47.210;8.618;2024-02-26T10:56:20;92416.53;;;26.82;36.56
71194;BME280;58903;47.210;8.618;2024-02-26T10:59:03;92417.41;;;26.85;36.69
71194;BME280;58903;47.210;8.618;2024-02-26T11:01:37;92419.44;;;26.84;36.44
71194;BME280;58903;47.210;8.618;2024-02-26T11:04:08;92413.38;;;26.86;36.65
71194;BME280;58903;47.210;8.618;2024-02-26T11:07:05;92411.16;;;26.84;36.86
71194;BME280;58903;47.210;8.618;2024-02-26T11:09:47;92408.25;;;26.82;36.34
71194;BME280;58903;47.210;8.618;2024-02-26T11:12:37;92411.91;;;26.85;36.70
71194;BME280;58903;47.210;8.618;2024-02-26T11:15:11;92414.50;;;26.83;36.36
71194;BME280;58903;47.210;8.618;2024-02-26T11:17:52;92418.53;;;26.82;36.44
71194;BME280;58903;47.210;8.618;2024-02-26T11:20:38;92414.34;;;26.81;36.40
71194;BME280;58903;47.210;8.618;2024-02-26T11:23:24;92422.03;;;26.82;36.49
71194;BME280;58903;47.210;8.618;2024-02-26T11:26:02;92419.44;;;26.84;36.49
71194;BME280;58903;47.210;8.618;2024-02-26T11:28:32;92408.97;;;26.83;36.57
71194;BME280;58903;47.210;8.618;2024-02-26T11:31:02;92420.00;;;26.83;36.37
71194;BME280;58903;47.210;8.618;2024-02-26T11:33:30;92421.06;;;26.87;36.21
71194;BME280;58903;47.210;8.618;2024-02-26T11:36:32;92427.34;;;26.88;36.02
71194;BME280;58903;47.210;8.618;2024-02-26T11:39:07;92427.16;;;26.86;36.30
71194;BME280;58903;47.210;8.618;2024-02-26T11:41:38;92429.03;;;26.83;36.71
71194;BME280;58903;47.210;8.618;2024-02-26T11:44:10;92428.28;;;26.83;36.13
71194;BME280;58903;47.210;8.618;2024-02-26T11:46:42;92415.94;;;26.84;36.17
71194;BME280;58903;47.210;8.618;2024-02-26T11:51:56;92424.00;;;26.89;36.46
71194;BME280;58903;47.210;8.618;2024-02-26T11:54:57;92421.25;;;26.89;36.40
71194;BME280;58903;47.210;8.618;2024-02-26T11:57:52;92415.56;;;26.87;36.58
71194;BME280;58903;47.210;8.618;2024-02-26T12:00:36;92420.34;;;26.87;36.54
71194;BME280;58903;47.210;8.618;2024-02-26T12:03:02;92417.59;;;26.87;36.53
71194;BME280;58903;47.210;8.618;2024-02-26T12:05:33;92414.81;;;26.87;36.09
71194;BME280;58903;47.210;8.618;2024-02-26T12:08:02;92413.38;;;26.86;36.39
71194;BME280;58903;47.210;8.618;2024-02-26T12:10:33;92405.09;;;26.86;36.74
71194;BME280;58903;47.210;8.618;2024-02-26T12:13:11;92406.38;;;26.85;36.50
71194;BME280;58903;47.210;8.618;2024-02-26T12:15:57;92411.91;;;26.85;37.09
71194;BME280;58903;47.210;8.618;2024-02-26T12:18:49;92419.59;;;26.86;36.56
71194;BME280;58903;47.210;8.618;2024-02-26T12:21:51;92420.91;;;26.85;36.78
71194;BME280;58903;47.210;8.618;2024-02-26T12:24:35;92415.94;;;26.84;36.55
71194;BME280;58903;47.210;8.618;2024-02-26T12:27:23;92415.41;;;26.85;36.62
71194;BME280;58903;47.210;8.618;2024-02-26T12:30:08;92411.31;;;26.86;36.33
71194;BME280;58903;47.210;8.618;2024-02-26T12:32:52;92407.84;;;26.86;36.54
71194;BME280;58903;47.210;8.618;2024-02-26T12:35:25;92402.34;;;26.86;36.75
71194;BME280;58903;47.210;8.618;2024-02-26T12:37:53;92400.28;;;26.86;36.31
71194;BME280;58903;47.210;8.618;2024-02-26T12:40:21;92406.53;;;26.87;36.38
71194;BME280;58903;47.210;8.618;2024-02-26T12:42:57;92400.88;;;26.85;36.49
71194;BME280;58903;47.210;8.618;2024-02-26T12:45:27;92407.84;;;26.86;36.19
71194;BME280;58903;47.210;8.618;2024-02-26T12:48:12;92402.88;;;26.84;36.44
71194;BME280;58903;47.210;8.618;2024-02-26T12:50:49;92402.34;;;26.86;36.73
71194;BME280;58903;47.210;8.618;2024-02-26T12:53:25;92404.53;;;26.87;36.44
71194;BME280;58903;47.210;8.618;2024-02-26T12:55:54;92401.19;;;26.89;36.26
71194;BME280;58903;47.210;8.618;2024-02-26T12:58:23;92405.25;;;26.88;36.45
71194;BME280;58903;47.210;8.618;2024-02-26T13:00:57;92404.53;;;26.87;36.37
71194;BME280;58903;47.210;8.618;2024-02-26T13:03:24;92411.50;;;26.88;36.39
71194;BME280;58903;47.210;8.618;2024-02-26T13:05:56;92416.31;;;26.88;36.35
71194;BME280;58903;47.210;8.618;2024-02-26T13:08:32;92405.25;;;26.88;36.45
71194;BME280;58903;47.210;8.618;2024-02-26T13:11:13;92405.09;;;26.86;36.53
71194;BME280;58903;47.210;8.618;2024-02-26T13:13:41;92401.03;;;26.87;36.32
71194;BME280;58903;47.210;8.618;2024-02-26T13:16:13;92403.78;;;26.87;36.77
71194;BME280;58903;47.210;8.618;2024-02-26T13:18:40;92405.66;;;26.84;36.44
71194;BME280;58903;47.210;8.618;2024-02-26T13:21:11;92410.03;;;26.87;36.25
71194;BME280;58903;47.210;8.618;2024-02-26T13:23:39;92406.53;;;26.87;36.29
71194;BME280;58903;47.210;8.618;2024-02-26T13:26:13;92409.31;;;26.87;36.57
71194;BME280;58903;47.210;8.618;2024-02-26T13:32:25;92411.50;;;26.88;36.54
71194;BME280;58903;47.210;8.618;2024-02-26T13:35:13;92397.53;;;26.86;36.42
71194;BME280;58903;47.210;8.618;2024-02-26T13:38:10;92407.84;;;26.86;36.40
71194;BME280;58903;47.210;8.618;2024-02-26T13:41:12;92405.25;;;26.88;36.71
71194;BME280;58903;47.210;8.618;2024-02-26T13:43:38;92399.00;;;26.87;36.44
71194;BME280;58903;47.210;8.618;2024-02-26T13:46:03;92398.13;;;26.85;36.59
71194;BME280;58903;47.210;8.618;2024-02-26T13:48:29;92403.63;;;26.85;36.49
71194;BME280;58903;47.210;8.618;2024-02-26T13:51:15;92404.53;;;26.87;36.54
71194;BME280;58903;47.210;8.618;2024-02-26T13:53:42;92402.34;;;26.86;36.83
71194;BME280;58903;47.210;8.618;2024-02-26T13:56:09;92405.97;;;26.88;36.98
71194;BME280;58903;47.210;8.618;2024-02-26T13:58:49;92400.28;;;26.86;36.45
71194;BME280;58903;47.210;8.618;2024-02-26T14:01:15;92400.88;;;26.85;36.51
71194;BME280;58903;47.210;8.618;2024-02-26T14:03:41;92398.28;;;26.87;37.20
71194;BME280;58903;47.210;8.618;2024-02-26T14:06:18;92403.78;;;26.87;36.47
71194;BME280;58903;47.210;8.618;2024-02-26T14:09:04;92405.09;;;26.86;37.02
71194;BME280;58903;47.210;8.618;2024-02-26T14:11:50;92407.66;;;26.84;36.78
71194;BME280;58903;47.210;8.618;2024-02-26T14:14:16;92413.38;;;26.86;36.79